ROMMA est une association bénévole à but non lucratif. Votre soutien est indispensable : ADHERER à ROMMA ou FAIRE un DON

Miribel-les-Echelles - (38, Isère)

Massif de la Chartreuse (760 m)   Longitude: 05° 41' 54'' E   Latitude: 45° 26' 40'' N Station partenaire n°22
 

Détail journalier du     <<     >>

Température Precipitation Humidité Pression Vent Dir Rafale Dir. rafale Ensol.
Heure (°C) (mm) (%) (hPa) (km/h) (km/h) (min)
01:00 10.3087101605NNE0
02:00 9.908810151NNE11NNE0
03:00 10.508510153N15NNE0
04:00 9.908910151NNE8N0
05:00 9.60.89210151NE5N0
06:00 9.4093101503NE0
07:00 0.210152ONO6O0
08:00 9.40.294101502ONO0
09:00 10.00951016000
10:00 10.209310162ONO15ONO0
11:00 10.20.49410162O13O0
12:00 10.909310162ONO10ONO0
13:00 11.509010164NNE15N0
14:00 11.808610166NNE19NNE0
15:00 11.908810166N18NNE30
16:00 12.808110166NNE18N30
17:00 12.808010164NNE16NNE60
18:00 12.108510162NO6NO0
19:00 11.808710162NNO8NNO0
20:00 11.608810172N11N0
21:00 10.909210172NO13NO0
22:00 10.709210182NO13NO0
23:00 10.409310182NO10O0
minuit 10.109310183ONO13ONO0

Graphique du 05-10-2019

 

Serveur OMMA